Time;durP1;ratioP1;P1;durP2;ratioP2;P2;SDS_P1;SDS_P2;PMS_P1;PMS_P2;Temp;Humidity;BMP_temperature;BMP_pressure;BME280_temperature;BME280_humidity;BME280_pressure;Samples;Min_cycle;Max_cycle;Signal;HPM_P1;HPM_P2
2023/09/06 00:00:51;;;;;;;8.02;5.53;;;18.30;99.90;;;;;;4944041;29;20023;-76
2023/09/06 00:03:17;;;;;;;7.28;5.22;;;18.30;99.90;;;;;;4926270;29;20130;-77
2023/09/06 00:05:43;;;;;;;8.13;5.47;;;18.30;99.90;;;;;;4944873;29;20189;-77
2023/09/06 00:08:14;;;;;;;11.40;6.03;;;18.30;99.90;;;;;;4944575;29;21124;-77
2023/09/06 00:10:40;;;;;;;7.22;5.75;;;18.30;99.90;;;;;;4961990;28;20385;-77
2023/09/06 00:13:07;;;;;;;7.25;5.78;;;18.20;99.90;;;;;;4946107;28;20133;-77
2023/09/06 00:15:33;;;;;;;9.05;5.75;;;18.20;99.90;;;;;;4947497;28;20059;-78
2023/09/06 00:17:59;;;;;;;9.07;5.72;;;18.20;99.90;;;;;;4960102;28;20039;-77
2023/09/06 00:20:25;;;;;;;9.70;5.60;;;18.20;99.90;;;;;;4947445;29;20126;-78
2023/09/06 00:22:58;;;;;;;6.47;5.28;;;18.10;99.90;;;;;;4944473;29;20039;-77
2023/09/06 00:25:28;;;;;;;5.90;5.18;;;18.20;99.90;;;;;;4944889;29;20083;-78
2023/09/06 00:27:55;;;;;;;5.65;5.05;;;18.10;99.90;;;;;;4946087;28;20523;-77
2023/09/06 00:30:21;;;;;;;7.65;5.38;;;18.10;99.90;;;;;;4943748;29;20113;-78
2023/09/06 00:32:52;;;;;;;6.95;5.55;;;18.10;99.90;;;;;;4960408;28;20122;-77
2023/09/06 00:35:19;;;;;;;7.00;5.63;;;18.00;99.90;;;;;;4946543;28;20027;-77
2023/09/06 00:37:44;;;;;;;8.63;5.57;;;18.00;99.90;;;;;;4943464;29;20043;-77
2023/09/06 00:40:21;;;;;;;7.97;5.38;;;18.00;99.90;;;;;;4943089;29;20418;-77
2023/09/06 00:42:52;;;;;;;9.18;5.93;;;17.90;99.90;;;;;;4941564;29;20046;-77
2023/09/06 00:45:26;;;;;;;;;;;17.90;99.90;;;;;;4946127;28;20031;-77
2023/09/06 00:47:55;;;;;;;7.75;5.38;;;17.80;99.90;;;;;;4946335;28;19922;-78
2023/09/06 00:50:21;;;;;;;7.78;5.78;;;17.80;99.90;;;;;;4946157;28;20027;-77
2023/09/06 00:52:48;;;;;;;9.15;6.55;;;17.80;99.90;;;;;;4954850;28;20110;-78
2023/09/06 00:55:13;;;;;;;8.15;6.55;;;17.80;99.90;;;;;;4926766;29;20040;-77
2023/09/06 00:57:40;;;;;;;7.25;6.13;;;17.70;99.90;;;;;;4925870;29;20034;-78
2023/09/06 01:00:17;;;;;;;8.60;6.35;;;17.70;99.90;;;;;;4927663;29;20469;-77
2023/09/06 01:02:44;;;;;;;8.38;6.40;;;17.70;99.90;;;;;;4936028;29;20484;-78
2023/09/06 01:05:10;;;;;;;8.73;6.18;;;17.70;99.90;;;;;;4945710;28;20027;-77
2023/09/06 01:07:38;;;;;;;8.45;5.80;;;17.70;99.90;;;;;;4930921;28;20121;-77
2023/09/06 01:10:04;;;;;;;7.57;5.53;;;17.70;99.90;;;;;;4926070;29;20035;-78
2023/09/06 01:12:30;;;;;;;6.25;5.50;;;17.60;99.90;;;;;;4926493;29;20054;-78
2023/09/06 01:14:55;;;;;;;6.63;5.53;;;17.60;99.90;;;;;;4926767;29;20028;-77
2023/09/06 01:17:26;;;;;;;7.57;5.50;;;17.60;99.90;;;;;;4932721;29;20116;-77
2023/09/06 01:19:56;;;;;;;7.60;5.22;;;17.60;99.90;;;;;;4945617;28;20069;-77
2023/09/06 01:22:31;;;;;;;6.80;5.38;;;17.60;99.90;;;;;;4960338;28;20038;-77
2023/09/06 01:24:57;;;;;;;8.73;6.25;;;17.60;99.90;;;;;;4943312;29;20178;-77
2023/09/06 01:27:24;;;;;;;7.93;5.13;;;17.60;99.90;;;;;;4934709;29;20031;-78
2023/09/06 01:29:49;;;;;;;7.55;5.03;;;17.50;99.90;;;;;;4927303;29;20024;-77
2023/09/06 01:32:16;;;;;;;6.50;5.50;;;17.50;99.90;;;;;;4940907;29;20046;-78
2023/09/06 01:34:41;;;;;;;7.63;5.78;;;17.50;99.90;;;;;;4932308;28;20776;-77
2023/09/06 01:37:07;;;;;;;6.93;5.40;;;17.50;99.90;;;;;;4936094;29;20034;-77
2023/09/06 01:39:32;;;;;;;9.30;5.72;;;17.50;99.90;;;;;;4941127;29;20336;-77
2023/09/06 01:41:58;;;;;;;6.38;5.25;;;17.40;99.90;;;;;;4943800;29;20038;-76
2023/09/06 01:44:23;;;;;;;7.38;5.28;;;17.40;99.90;;;;;;4941450;29;20113;-77
2023/09/06 01:46:49;;;;;;;6.82;5.55;;;17.40;99.90;;;;;;4938756;29;20375;-77
2023/09/06 01:49:15;;;;;;;7.43;5.55;;;17.40;99.90;;;;;;4939319;29;20032;-77
2023/09/06 01:51:41;;;;;;;8.63;5.90;;;17.40;99.90;;;;;;4929074;29;20040;-77
2023/09/06 01:54:08;;;;;;;7.05;5.78;;;17.40;99.90;;;;;;4936383;29;20051;-77
2023/09/06 01:56:33;;;;;;;7.75;6.35;;;17.40;99.90;;;;;;4922542;29;20542;-77
2023/09/06 01:58:59;;;;;;;6.60;5.68;;;17.30;99.90;;;;;;4926238;29;20102;-77
2023/09/06 02:01:24;;;;;;;8.95;6.07;;;17.30;99.90;;;;;;4928042;29;20042;-77
2023/09/06 02:03:50;;;;;;;8.50;5.85;;;17.30;99.90;;;;;;4922102;29;20103;-77
2023/09/06 02:06:16;;;;;;;7.13;5.95;;;17.30;99.90;;;;;;4936241;29;20559;-77
2023/09/06 02:08:41;;;;;;;9.15;6.22;;;17.30;99.90;;;;;;4940839;29;20031;-77
2023/09/06 02:11:07;;;;;;;6.70;5.70;;;17.30;99.90;;;;;;4939123;29;20051;-78
2023/09/06 02:13:33;;;;;;;7.88;5.88;;;17.30;99.90;;;;;;4931735;29;20405;-77
2023/09/06 02:15:59;;;;;;;7.88;5.90;;;17.30;99.90;;;;;;4940536;29;20027;-77
2023/09/06 02:18:26;;;;;;;8.38;6.47;;;17.30;99.90;;;;;;4943497;28;20412;-77
2023/09/06 02:20:56;;;;;;;6.53;5.85;;;17.30;99.90;;;;;;4941922;28;20627;-77
2023/09/06 02:23:23;;;;;;;5.90;5.30;;;17.30;99.90;;;;;;4945779;28;20141;-77
2023/09/06 02:25:48;;;;;;;7.22;5.70;;;17.30;99.90;;;;;;4941451;29;20312;-77
2023/09/06 02:28:17;;;;;;;8.45;5.80;;;17.30;99.90;;;;;;4944796;29;20038;-77
2023/09/06 02:30:43;;;;;;;10.40;6.38;;;17.40;99.90;;;;;;4943314;28;20138;-77
2023/09/06 02:33:13;;;;;;;6.63;5.68;;;17.30;99.90;;;;;;4946078;28;20039;-77
2023/09/06 02:35:41;;;;;;;10.85;6.13;;;17.40;99.90;;;;;;4944594;29;20035;-77
2023/09/06 02:38:13;;;;;;;7.03;6.30;;;17.40;99.90;;;;;;4940875;29;20035;-77
2023/09/06 02:40:40;;;;;;;9.38;6.35;;;17.40;99.90;;;;;;4944341;28;20079;-77
2023/09/06 02:43:06;;;;;;;8.00;6.28;;;17.40;99.90;;;;;;4934289;29;20038;-77
2023/09/06 02:45:38;;;;;;;7.68;5.90;;;17.40;99.90;;;;;;4945966;29;20050;-77
2023/09/06 02:48:11;;;;;;;8.60;6.22;;;17.40;99.90;;;;;;4946229;28;20050;-77
2023/09/06 02:50:39;;;;;;;8.48;5.47;;;17.40;99.90;;;;;;4930790;28;20032;-77
2023/09/06 02:53:15;;;;;;;8.02;5.65;;;17.30;99.90;;;;;;4939096;29;20043;-77
2023/09/06 02:55:43;;;;;;;6.53;5.32;;;17.30;99.90;;;;;;4945211;28;20126;-78
2023/09/06 02:58:09;;;;;;;6.13;5.53;;;17.20;99.90;;;;;;4936944;28;20049;-77
2023/09/06 03:00:40;;;;;;;6.60;5.80;;;17.20;99.90;;;;;;4926537;29;20023;-77
2023/09/06 03:03:05;;;;;;;7.53;5.75;;;17.20;99.90;;;;;;4927898;29;20036;-78
2023/09/06 03:05:41;;;;;;;10.55;6.80;;;17.20;99.90;;;;;;4927452;29;20890;-77
2023/09/06 03:08:07;;;;;;;7.90;6.68;;;17.20;99.90;;;;;;4927901;29;20035;-77
2023/09/06 03:10:33;;;;;;;8.90;6.80;;;17.20;99.90;;;;;;4927005;29;20038;-77
2023/09/06 03:12:59;;;;;;;7.50;6.65;;;17.20;99.90;;;;;;4927407;28;20047;-77
2023/09/06 03:15:29;;;;;;;8.27;6.68;;;17.10;99.90;;;;;;4925721;29;20110;-77
2023/09/06 03:17:58;;;;;;;8.85;6.82;;;17.10;99.90;;;;;;4928752;29;20039;-77
2023/09/06 03:20:42;;;;;;;8.02;5.60;;;17.10;99.90;;;;;;4925720;29;20494;-77
2023/09/06 03:23:19;;;;;;;7.85;6.32;;;17.10;99.90;;;;;;4926332;29;20040;-78
2023/09/06 03:25:54;;;;;;;7.10;5.40;;;17.10;99.90;;;;;;4931293;29;20019;-76
2023/09/06 03:28:20;;;;;;;9.75;6.25;;;17.10;99.90;;;;;;4944927;28;20492;-76
2023/09/06 03:30:47;;;;;;;11.07;6.68;;;17.00;99.90;;;;;;4945317;28;20027;-77
2023/09/06 03:33:12;;;;;;;9.80;6.22;;;17.00;99.90;;;;;;4943266;28;20531;-77
2023/09/06 03:35:38;;;;;;;9.05;6.47;;;17.00;99.90;;;;;;4944804;28;20034;-77
2023/09/06 03:38:10;;;;;;;6.35;5.75;;;17.00;99.90;;;;;;4943998;29;20041;-76
2023/09/06 03:40:35;;;;;;;9.20;6.18;;;17.00;99.90;;;;;;4944430;29;20474;-77
2023/09/06 03:43:19;;;;;;;7.13;6.38;;;17.00;99.90;;;;;;4944946;29;20090;-77
2023/09/06 03:45:55;;;;;;;8.77;6.47;;;17.00;99.90;;;;;;4930022;29;20027;-77
2023/09/06 03:48:23;;;;;;;7.80;6.18;;;17.00;99.90;;;;;;4945254;28;20063;-77
2023/09/06 03:50:57;;;;;;;8.48;6.30;;;16.90;99.90;;;;;;4944552;28;20027;-77
2023/09/06 03:53:27;;;;;;;8.23;5.68;;;16.90;99.90;;;;;;4945144;28;20052;-77
2023/09/06 03:55:56;;;;;;;7.97;6.22;;;16.90;99.90;;;;;;4932285;28;20075;-77
2023/09/06 03:58:25;;;;;;;7.88;6.90;;;16.90;99.90;;;;;;4931140;29;20035;-77
2023/09/06 04:00:52;;;;;;;9.20;7.00;;;16.90;99.90;;;;;;4937771;29;20504;-77
2023/09/06 04:03:18;;;;;;;8.23;6.43;;;16.90;99.90;;;;;;4936818;29;20035;-77
2023/09/06 04:05:45;;;;;;;10.70;7.88;;;17.00;99.90;;;;;;4934451;29;20019;-77
2023/09/06 04:08:11;;;;;;;10.48;7.72;;;16.90;99.90;;;;;;4936891;29;20137;-77
2023/09/06 04:10:38;;;;;;;9.75;7.88;;;16.90;99.90;;;;;;4937393;29;20667;-77
2023/09/06 04:13:05;;;;;;;10.45;7.50;;;17.00;99.90;;;;;;4928966;29;20059;-77
2023/09/06 04:15:34;;;;;;;10.18;7.30;;;17.00;99.90;;;;;;4934678;29;20504;-77
2023/09/06 04:18:01;;;;;;;13.57;7.40;;;17.00;99.90;;;;;;4937112;29;20035;-77
2023/09/06 04:20:35;;;;;;;13.82;7.75;;;17.00;99.90;;;;;;4943843;28;20050;-77
2023/09/06 04:23:01;;;;;;;13.90;9.13;;;17.00;99.90;;;;;;4942969;28;20051;-77
2023/09/06 04:25:28;;;;;;;16.20;8.98;;;17.00;99.90;;;;;;4937224;28;20031;-77
2023/09/06 04:27:54;;;;;;;14.55;8.57;;;17.00;99.90;;;;;;4942094;29;20134;-77
2023/09/06 04:30:24;;;;;;;11.80;8.23;;;17.00;99.90;;;;;;4944335;28;20122;-77
2023/09/06 04:32:51;;;;;;;15.20;8.85;;;17.00;99.90;;;;;;4941633;29;20035;-78
2023/09/06 04:35:17;;;;;;;12.13;8.25;;;17.00;99.90;;;;;;4942322;28;20023;-77
2023/09/06 04:37:43;;;;;;;12.95;8.48;;;17.00;99.90;;;;;;4938493;28;20064;-77
2023/09/06 04:40:13;;;;;;;12.30;7.90;;;17.00;99.90;;;;;;4941009;29;20031;-77
2023/09/06 04:42:41;;;;;;;13.57;8.13;;;17.00;99.90;;;;;;4944625;28;20042;-78
2023/09/06 04:45:09;;;;;;;13.60;8.10;;;16.90;99.90;;;;;;4933355;28;20136;-77
2023/09/06 04:47:35;;;;;;;13.38;9.32;;;16.90;99.90;;;;;;4926302;29;20035;-76
2023/09/06 04:50:01;;;;;;;11.10;8.27;;;16.90;99.90;;;;;;4924469;29;20032;-77
2023/09/06 04:52:27;;;;;;;16.90;8.68;;;16.90;99.90;;;;;;4941368;29;20457;-77
2023/09/06 04:54:53;;;;;;;14.18;8.20;;;16.90;99.90;;;;;;4933098;29;20453;-77
2023/09/06 04:57:19;;;;;;;11.00;8.18;;;16.90;99.90;;;;;;4944689;29;20102;-77
2023/09/06 04:59:44;;;;;;;12.80;8.32;;;16.90;99.90;;;;;;4958078;28;20066;-77
2023/09/06 05:02:10;;;;;;;12.02;8.02;;;16.90;99.90;;;;;;4955625;28;20528;-77
2023/09/06 05:04:36;;;;;;;9.55;7.07;;;16.90;99.90;;;;;;4939337;29;20205;-77
2023/09/06 05:07:05;;;;;;;12.45;7.90;;;16.90;99.90;;;;;;4941327;28;20035;-76
2023/09/06 05:09:31;;;;;;;11.40;8.15;;;16.90;99.90;;;;;;4942227;28;20038;-77
2023/09/06 05:11:57;;;;;;;9.57;7.85;;;16.90;99.90;;;;;;4941641;28;20130;-77
2023/09/06 05:14:23;;;;;;;16.13;9.30;;;16.90;99.90;;;;;;4943399;29;20114;-76
2023/09/06 05:16:48;;;;;;;14.48;8.15;;;16.90;99.90;;;;;;4937808;29;20028;-77
2023/09/06 05:19:14;;;;;;;13.15;8.05;;;16.90;99.90;;;;;;4937336;28;20114;-76
2023/09/06 05:21:40;;;;;;;10.73;7.88;;;16.90;99.90;;;;;;4927213;29;20465;-77
2023/09/06 05:24:05;;;;;;;12.40;7.20;;;16.80;99.90;;;;;;4943145;29;20027;-77
2023/09/06 05:26:33;;;;;;;16.80;8.10;;;16.90;99.90;;;;;;4937197;29;20433;-76
2023/09/06 05:28:59;;;;;;;11.23;7.53;;;16.90;99.90;;;;;;4939122;29;20039;-77
2023/09/06 05:31:25;;;;;;;12.55;8.15;;;16.90;99.90;;;;;;4940710;28;20083;-76
2023/09/06 05:33:50;;;;;;;9.18;7.13;;;16.80;99.90;;;;;;4942771;29;20150;-77
2023/09/06 05:36:16;;;;;;;12.88;7.53;;;16.90;99.90;;;;;;4941346;29;20028;-77
2023/09/06 05:38:42;;;;;;;11.60;8.73;;;16.80;99.90;;;;;;4938103;29;20035;-76
2023/09/06 05:41:08;;;;;;;13.23;8.25;;;16.90;99.90;;;;;;4933086;29;20031;-77
2023/09/06 05:43:34;;;;;;;11.88;7.82;;;16.80;99.90;;;;;;4942721;28;20027;-76
2023/09/06 05:45:59;;;;;;;12.23;8.15;;;16.90;99.90;;;;;;4942325;28;20059;-77
2023/09/06 05:48:25;;;;;;;9.43;6.63;;;16.90;99.90;;;;;;4927202;29;20076;-78
2023/09/06 05:50:51;;;;;;;9.93;7.30;;;16.90;99.90;;;;;;4926796;29;20054;-77
2023/09/06 05:53:16;;;;;;;11.05;6.80;;;16.90;99.90;;;;;;4932315;29;20147;-77
2023/09/06 05:55:42;;;;;;;10.35;7.15;;;17.00;99.90;;;;;;4949238;28;20038;-77
2023/09/06 05:58:07;;;;;;;12.50;8.63;;;17.00;99.90;;;;;;4943981;29;20560;-77
2023/09/06 06:00:34;;;;;;;9.73;8.73;;;17.10;99.90;;;;;;4943890;29;20035;-77
2023/09/06 06:03:01;;;;;;;11.65;7.90;;;17.10;99.90;;;;;;4932814;29;20508;-76
2023/09/06 06:05:28;;;;;;;10.50;8.48;;;17.30;99.90;;;;;;4941570;29;20617;-79
2023/09/06 06:07:54;;;;;;;10.27;8.00;;;17.30;99.90;;;;;;4927581;28;20183;-77
2023/09/06 06:10:19;;;;;;;9.40;8.05;;;17.40;99.90;;;;;;4936194;29;20521;-82
2023/09/06 06:12:46;;;;;;;12.02;7.70;;;17.50;99.90;;;;;;4944669;28;20054;-83
2023/09/06 06:15:13;;;;;;;13.48;7.60;;;17.60;99.90;;;;;;4937138;28;20093;-84
2023/09/06 06:17:39;;;;;;;11.27;7.68;;;17.70;99.90;;;;;;4938309;29;20037;-84
2023/09/06 06:20:06;;;;;;;11.50;8.80;;;17.80;99.90;;;;;;4937006;29;20555;-84
2023/09/06 06:22:38;;;;;;;12.38;8.85;;;17.90;99.90;;;;;;4935453;28;20035;-82
2023/09/06 06:25:05;;;;;;;10.50;8.25;;;18.10;99.90;;;;;;4934152;28;20031;-83
2023/09/06 06:27:31;;;;;;;69.53;42.08;;;18.20;99.90;;;;;;4941900;28;20130;-82
2023/09/06 06:29:56;;;;;;;43.90;27.80;;;18.30;99.90;;;;;;4941035;28;20126;-83
2023/09/06 06:32:22;;;;;;;18.13;13.27;;;18.50;99.90;;;;;;4942000;28;20050;-84
2023/09/06 06:34:50;;;;;;;17.85;10.85;;;18.60;99.90;;;;;;4940285;28;20389;-83
2023/09/06 06:37:16;;;;;;;10.90;8.25;;;18.70;99.90;;;;;;4942781;29;20031;-84
2023/09/06 06:39:42;;;;;;;12.95;8.07;;;18.80;99.90;;;;;;4934954;28;20035;-84
2023/09/06 06:42:08;;;;;;;10.57;6.72;;;19.00;99.90;;;;;;4935713;28;20020;-84
2023/09/06 06:44:33;;;;;;;10.65;6.70;;;19.10;99.90;;;;;;4938432;28;20125;-83
2023/09/06 06:47:00;;;;;;;10.63;6.55;;;19.20;99.90;;;;;;4941069;28;20028;-83
2023/09/06 06:49:26;;;;;;;8.82;7.55;;;19.30;99.90;;;;;;4938112;28;20090;-84
2023/09/06 06:51:52;;;;;;;12.52;7.97;;;19.40;99.90;;;;;;4936190;28;20042;-84
2023/09/06 06:54:18;;;;;;;11.02;7.45;;;19.50;99.90;;;;;;4950249;28;20054;-84
2023/09/06 06:56:44;;;;;;;10.20;7.93;;;19.70;99.90;;;;;;4936662;28;20035;-84
2023/09/06 06:59:10;;;;;;;33.40;22.85;;;19.80;99.90;;;;;;4936243;28;20103;-84
2023/09/06 07:01:36;;;;;;;9.48;7.57;;;19.90;99.90;;;;;;4934243;28;20074;-83
2023/09/06 07:04:05;;;;;;;11.25;7.82;;;20.10;99.90;;;;;;4936340;28;20054;-83
2023/09/06 07:06:31;;;;;;;8.98;7.60;;;20.20;99.90;;;;;;4942460;28;20071;-84
2023/09/06 07:08:58;;;;;;;10.18;7.47;;;20.30;99.90;;;;;;4934565;28;20567;-83
2023/09/06 07:11:24;;;;;;;8.40;7.50;;;20.40;99.90;;;;;;4935604;28;20650;-83
2023/09/06 07:13:50;;;;;;;13.77;8.50;;;20.60;99.90;;;;;;4933952;28;20165;-83
2023/09/06 07:16:20;;;;;;;9.55;7.55;;;20.80;99.90;;;;;;4939520;28;20027;-83
2023/09/06 07:18:46;;;;;;;11.00;7.38;;;20.90;99.90;;;;;;4940339;28;20110;-83
2023/09/06 07:21:12;;;;;;;8.52;7.00;;;21.10;99.90;;;;;;4939650;28;20089;-82
2023/09/06 07:23:37;;;;;;;10.13;6.68;;;21.30;99.90;;;;;;4936583;29;20058;-82
2023/09/06 07:26:04;;;;;;;8.68;6.38;;;21.40;99.90;;;;;;4938524;29;20023;-84
2023/09/06 07:28:42;;;;;;;8.13;5.85;;;21.60;99.90;;;;;;4946047;28;20066;-83
2023/09/06 07:31:08;;;;;;;11.48;7.07;;;21.80;99.90;;;;;;4942961;29;20448;-82
2023/09/06 07:33:34;;;;;;;11.10;6.95;;;22.00;99.90;;;;;;4939179;28;20047;-83
2023/09/06 07:35:59;;;;;;;16.20;7.30;;;22.30;99.90;;;;;;4939814;29;20055;-83
2023/09/06 07:38:25;;;;;;;9.98;6.50;;;22.40;99.90;;;;;;4933775;29;20039;-83
2023/09/06 07:40:58;;;;;;;9.93;6.57;;;22.70;99.90;;;;;;4932747;28;20043;-84
2023/09/06 07:43:25;;;;;;;12.25;6.47;;;23.00;99.90;;;;;;4937734;28;20036;-83
2023/09/06 07:45:51;;;;;;;8.98;6.10;;;23.50;99.90;;;;;;4935104;28;20079;-83
2023/09/06 07:48:17;;;;;;;8.27;6.20;;;23.90;99.90;;;;;;4943226;29;20185;-83
2023/09/06 07:50:42;;;;;;;12.30;6.20;;;24.70;99.90;;;;;;4937167;29;20106;-83
2023/09/06 07:53:08;;;;;;;11.45;6.70;;;25.40;99.90;;;;;;4933792;29;20263;-83
2023/09/06 07:55:34;;;;;;;14.48;6.20;;;26.10;99.90;;;;;;4930142;29;21549;-82
2023/09/06 07:57:59;;;;;;;29.35;7.40;;;26.90;99.90;;;;;;4933726;29;20035;-84
2023/09/06 08:00:26;;;;;;;22.83;6.20;;;27.60;99.90;;;;;;4931168;29;20031;-84
2023/09/06 08:02:51;;;;;;;17.45;6.13;;;28.10;99.90;;;;;;4932844;28;20035;-84
2023/09/06 08:05:17;;;;;;;8.32;5.68;;;28.60;99.90;;;;;;4933432;28;20054;-84
2023/09/06 08:07:43;;;;;;;8.73;5.30;;;29.10;99.90;;;;;;4929808;29;20055;-84
2023/09/06 08:10:09;;;;;;;9.30;6.50;;;29.50;99.90;;;;;;4931569;29;20411;-84
2023/09/06 08:12:36;;;;;;;10.73;6.47;;;29.80;99.90;;;;;;4930992;29;20165;-84
2023/09/06 08:15:03;;;;;;;9.00;5.55;;;30.20;99.90;;;;;;4947866;28;20031;-84
2023/09/06 08:17:29;;;;;;;15.45;5.28;;;30.60;99.90;;;;;;4932687;29;20031;-84
2023/09/06 08:19:55;;;;;;;17.02;5.85;;;30.80;99.00;;;;;;4934445;28;20054;-85
2023/09/06 08:22:21;;;;;;;20.55;6.50;;;31.30;98.90;;;;;;4939744;29;20457;-85
2023/09/06 08:24:46;;;;;;;19.63;5.32;;;31.80;98.20;;;;;;4943629;29;20484;-85
2023/09/06 08:27:12;;;;;;;18.48;4.72;;;32.20;96.20;;;;;;4944969;29;20047;-85
2023/09/06 08:29:38;;;;;;;19.95;5.10;;;32.60;94.60;;;;;;4945097;29;20035;-86
2023/09/06 08:32:04;;;;;;;16.20;5.20;;;32.80;94.60;;;;;;4944069;29;20536;-85
2023/09/06 08:34:29;;;;;;;13.55;4.82;;;33.00;93.20;;;;;;4946990;29;20050;-86
2023/09/06 08:36:56;;;;;;;7.10;4.22;;;33.20;91.60;;;;;;4934280;29;20031;-86
2023/09/06 08:39:22;;;;;;;5.68;4.15;;;33.40;91.00;;;;;;4939498;28;20054;-85
2023/09/06 08:41:49;;;;;;;8.95;6.80;;;33.70;90.90;;;;;;4944471;29;20051;-85
2023/09/06 08:44:18;;;;;;;16.17;5.88;;;34.20;90.50;;;;;;4934247;28;20420;-85
2023/09/06 08:46:46;;;;;;;17.98;6.25;;;34.80;86.60;;;;;;4945270;28;20069;-86
2023/09/06 08:49:12;;;;;;;41.53;6.80;;;35.30;88.00;;;;;;4940467;28;20383;-86
2023/09/06 08:51:41;;;;;;;21.55;5.43;;;35.50;86.70;;;;;;4942163;28;20046;-86
2023/09/06 08:54:08;;;;;;;21.42;5.03;;;35.70;80.30;;;;;;4961516;28;20050;-85
2023/09/06 08:56:34;;;;;;;8.32;6.47;;;36.10;79.50;;;;;;4942892;28;20032;-86
2023/09/06 08:59:00;;;;;;;40.45;5.90;;;36.40;72.90;;;;;;4931218;29;20058;-86
2023/09/06 09:01:28;;;;;;;8.55;5.93;;;36.70;73.00;;;;;;4939858;29;20493;-86
2023/09/06 09:03:53;;;;;;;8.57;5.93;;;36.80;69.60;;;;;;4943845;29;20471;-89
2023/09/06 09:06:20;;;;;;;7.40;6.28;;;37.00;74.30;;;;;;4938196;29;20162;-88
2023/09/06 09:08:46;;;;;;;17.45;4.90;;;37.50;70.90;;;;;;4945340;29;20037;-87
2023/09/06 09:11:12;;;;;;;30.35;4.72;;;37.70;68.70;;;;;;4935321;29;20126;-87
2023/09/06 09:13:38;;;;;;;21.95;4.70;;;37.80;67.70;;;;;;4927582;29;20231;-88
2023/09/06 09:16:12;;;;;;;10.98;4.03;;;37.80;68.40;;;;;;4928620;29;20054;-89
2023/09/06 09:18:38;;;;;;;10.38;6.90;;;38.00;65.90;;;;;;4950570;28;20129;-89
2023/09/06 09:21:04;;;;;;;7.50;6.32;;;38.50;60.50;;;;;;4943604;29;20588;-88
2023/09/06 09:23:32;;;;;;;7.90;3.70;;;38.80;62.40;;;;;;4944090;29;20046;-88
2023/09/06 09:25:58;;;;;;;6.00;3.67;;;39.20;61.80;;;;;;4936825;28;20027;-89
2023/09/06 09:28:24;;;;;;;6.10;3.45;;;39.30;62.70;;;;;;4947414;28;20041;-89
2023/09/06 09:30:50;;;;;;;5.20;3.65;;;39.40;61.60;;;;;;4945143;28;20028;-89
2023/09/06 09:33:16;;;;;;;8.90;6.20;;;39.50;61.70;;;;;;4945411;28;20266;-88
2023/09/06 09:35:43;;;;;;;6.88;4.28;;;39.90;55.90;;;;;;4941725;29;20524;-88
2023/09/06 09:38:13;;;;;;;11.30;7.05;;;40.10;57.80;;;;;;4944338;28;20118;-88
2023/09/06 09:40:38;;;;;;;13.40;6.45;;;40.10;55.00;;;;;;4944476;29;20333;-88
2023/09/06 09:43:04;;;;;;;5.90;4.90;;;40.10;54.30;;;;;;4939880;29;20040;-88
2023/09/06 09:45:39;;;;;;;10.63;6.63;;;40.30;55.60;;;;;;4935926;29;20038;-87
2023/09/06 09:48:07;;;;;;;7.38;4.78;;;40.20;53.40;;;;;;4939537;28;20062;-89
2023/09/06 09:50:34;;;;;;;10.80;6.10;;;40.40;58.10;;;;;;4931278;29;20054;-87
2023/09/06 09:53:05;;;;;;;8.38;5.47;;;40.70;53.80;;;;;;4936146;29;20480;-86
2023/09/06 09:55:35;;;;;;;7.65;6.10;;;40.80;54.50;;;;;;4945225;28;20027;-86
2023/09/06 09:58:05;;;;;;;11.10;7.20;;;41.10;53.30;;;;;;4943067;28;20086;-88
2023/09/06 10:00:32;;;;;;;6.55;5.68;;;41.20;52.20;;;;;;4936264;29;20023;-86
2023/09/06 10:02:59;;;;;;;8.40;5.05;;;41.50;52.10;;;;;;4939072;28;20497;-87
2023/09/06 10:05:29;;;;;;;6.70;3.20;;;41.70;52.70;;;;;;4929949;28;20032;-87
2023/09/06 10:08:00;;;;;;;6.30;4.65;;;41.80;55.00;;;;;;4942222;28;20046;-88
2023/09/06 10:10:27;;;;;;;6.32;4.90;;;41.90;51.00;;;;;;4939684;28;20036;-88
2023/09/06 10:12:56;;;;;;;6.50;4.40;;;42.20;52.40;;;;;;4937919;28;20039;-87
2023/09/06 10:15:24;;;;;;;6.03;3.38;;;42.50;52.90;;;;;;4941431;28;20047;-87
2023/09/06 10:17:51;;;;;;;5.30;2.90;;;42.70;52.20;;;;;;4944805;29;20122;-86
2023/09/06 10:20:22;;;;;;;6.53;4.35;;;42.80;52.30;;;;;;4928277;28;20520;-86
2023/09/06 10:22:51;;;;;;;7.85;4.38;;;42.90;50.30;;;;;;4940192;28;20046;-85
2023/09/06 10:25:18;;;;;;;3.85;3.10;;;43.20;48.20;;;;;;4939323;28;20362;-87
2023/09/06 10:27:54;;;;;;;6.22;3.78;;;43.00;50.80;;;;;;4935547;29;20032;-86
2023/09/06 10:30:45;;;;;;;8.38;4.00;;;43.20;51.30;;;;;;4944545;28;20043;-88
2023/09/06 10:33:36;;;;;;;5.70;3.50;;;43.40;48.40;;;;;;4945607;29;20090;-85
2023/09/06 10:36:07;;;;;;;4.82;3.72;;;43.40;52.00;;;;;;4945651;29;20089;-87
2023/09/06 10:38:35;;;;;;;5.13;3.75;;;43.70;47.90;;;;;;4935508;29;20489;-87
2023/09/06 10:41:04;;;;;;;5.72;3.60;;;43.80;46.60;;;;;;4940128;29;20028;-86
2023/09/06 10:43:55;;;;;;;7.05;3.33;;;43.70;48.10;;;;;;4945155;29;20035;-88
2023/09/06 10:46:26;;;;;;;4.32;3.00;;;43.80;48.70;;;;;;4948745;28;20564;-84
2023/09/06 10:49:19;;;;;;;5.10;2.80;;;43.80;49.40;;;;;;4943655;28;20031;-87
2023/09/06 10:51:59;;;;;;;5.20;3.20;;;43.50;45.50;;;;;;4948894;29;20050;-87
2023/09/06 10:54:39;;;;;;;4.32;2.97;;;43.50;49.40;;;;;;4949557;28;20047;-85
2023/09/06 10:57:10;;;;;;;4.70;2.80;;;43.70;49.10;;;;;;4944959;29;20038;-86
2023/09/06 10:59:43;;;;;;;4.78;2.95;;;43.40;48.20;;;;;;4944957;29;20147;-86
2023/09/06 11:02:25;;;;;;;6.20;2.75;;;43.70;45.70;;;;;;4933017;29;20118;-88
2023/09/06 11:05:14;;;;;;;6.97;2.92;;;43.60;47.90;;;;;;4933969;29;20563;-87
2023/09/06 11:07:43;;;;;;;4.60;3.42;;;43.80;48.90;;;;;;4935978;28;20023;-86
2023/09/06 11:10:09;;;;;;;5.30;3.05;;;44.00;47.80;;;;;;4939866;28;20133;-87
2023/09/06 11:12:36;;;;;;;5.80;3.20;;;43.50;45.60;;;;;;4936849;29;20082;-87
2023/09/06 11:15:01;;;;;;;6.80;3.03;;;43.10;48.60;;;;;;4946425;29;20217;-87
2023/09/06 11:17:27;;;;;;;4.18;3.00;;;43.10;46.30;;;;;;4944692;28;20127;-88
2023/09/06 11:19:53;;;;;;;7.00;2.70;;;43.20;48.00;;;;;;4941371;29;20040;-88
2023/09/06 11:22:19;;;;;;;5.68;2.97;;;43.10;47.60;;;;;;4935866;29;20045;-87
2023/09/06 11:24:45;;;;;;;5.85;3.20;;;42.90;50.20;;;;;;4947314;29;20154;-88
2023/09/06 11:27:17;;;;;;;4.50;3.28;;;42.50;48.10;;;;;;4947908;29;20118;-87
2023/09/06 11:29:43;;;;;;;4.85;2.80;;;41.50;48.80;;;;;;4941927;29;20252;-87
2023/09/06 11:32:13;;;;;;;4.38;2.80;;;40.40;51.30;;;;;;4944357;29;20035;-87
2023/09/06 11:34:45;;;;;;;6.70;3.65;;;39.60;53.60;;;;;;4946617;28;20477;-87
2023/09/06 11:37:14;;;;;;;3.95;3.35;;;38.90;53.40;;;;;;4942306;29;20045;-85
2023/09/06 11:39:45;;;;;;;4.45;3.13;;;38.40;56.00;;;;;;4932450;29;20028;-86
2023/09/06 11:42:16;;;;;;;6.80;3.30;;;38.00;58.60;;;;;;4945489;28;20034;-86
2023/09/06 11:44:53;;;;;;;6.45;3.25;;;37.70;56.70;;;;;;4929833;29;20074;-86
2023/09/06 11:47:20;;;;;;;5.75;3.28;;;37.50;57.70;;;;;;4943286;28;20043;-86
2023/09/06 11:49:46;;;;;;;6.35;3.30;;;37.30;58.00;;;;;;4947550;28;20059;-86
2023/09/06 11:52:19;;;;;;;7.07;3.20;;;37.10;57.00;;;;;;4942996;29;20118;-85
2023/09/06 11:54:50;;;;;;;4.28;3.20;;;36.90;58.20;;;;;;4943245;28;20050;-86
2023/09/06 11:57:30;;;;;;;8.80;3.67;;;36.90;58.10;;;;;;4949078;28;20086;-86
2023/09/06 12:00:00;;;;;;;5.53;3.10;;;36.90;61.00;;;;;;4939622;28;20504;-86
2023/09/06 12:02:34;;;;;;;5.70;3.25;;;36.80;63.30;;;;;;4938684;28;20389;-85
2023/09/06 12:05:03;;;;;;;7.20;3.30;;;36.60;64.70;;;;;;4943627;28;20631;-85
2023/09/06 12:07:31;;;;;;;6.43;3.17;;;36.60;61.40;;;;;;4938579;28;20034;-83
2023/09/06 12:09:58;;;;;;;4.93;3.30;;;36.50;62.60;;;;;;4940775;28;20062;-86
2023/09/06 12:12:26;;;;;;;5.05;3.22;;;36.40;64.20;;;;;;4943950;29;20110;-85
2023/09/06 12:14:52;;;;;;;8.30;3.53;;;36.30;62.90;;;;;;4941168;29;20094;-85
2023/09/06 12:17:19;;;;;;;6.35;3.08;;;36.10;59.60;;;;;;4948049;29;20046;-86
2023/09/06 12:19:45;;;;;;;9.73;3.05;;;36.10;67.20;;;;;;4955269;28;20062;-85
2023/09/06 12:22:17;;;;;;;4.68;3.05;;;36.10;66.50;;;;;;4939472;29;20667;-87
2023/09/06 12:24:46;;;;;;;4.40;2.80;;;36.20;67.70;;;;;;4945616;28;20122;-85
2023/09/06 12:27:14;;;;;;;5.28;3.13;;;36.10;67.80;;;;;;4938840;29;20032;-85
2023/09/06 12:29:41;;;;;;;7.53;3.38;;;36.10;65.70;;;;;;4931700;29;20035;-84
2023/09/06 12:32:07;;;;;;;5.15;3.30;;;36.20;63.40;;;;;;4944339;29;20040;-86
2023/09/06 12:34:33;;;;;;;6.93;3.20;;;36.10;66.20;;;;;;4937265;28;20071;-86
2023/09/06 12:36:59;;;;;;;6.43;2.88;;;36.10;65.10;;;;;;4926442;29;20063;-86
2023/09/06 12:39:25;;;;;;;6.05;3.20;;;36.00;64.60;;;;;;4928191;29;20034;-86
2023/09/06 12:41:50;;;;;;;6.95;2.83;;;35.80;61.10;;;;;;4934326;28;20481;-86
2023/09/06 12:44:16;;;;;;;8.52;2.72;;;35.70;61.60;;;;;;4937496;28;20032;-85
2023/09/06 12:46:42;;;;;;;7.85;3.15;;;35.60;67.20;;;;;;4942691;29;20031;-86